Time;durP1;ratioP1;P1;durP2;ratioP2;P2;SDS_P1;SDS_P2;PMS_P1;PMS_P2;Temp;Humidity;BMP_temperature;BMP_pressure;BME280_temperature;BME280_humidity;BME280_pressure;Samples;Min_cycle;Max_cycle;Signal;HPM_P1;HPM_P2
2022/05/02 00:02:04;;;;;;;11.10;8.18;;;;;;;;;;5017781;28;20307;-59
2022/05/02 00:04:29;;;;;;;12.27;8.68;;;;;;;;;;5010262;28;20204;-58
2022/05/02 00:06:54;;;;;;;11.85;8.60;;;;;;;;;;5010708;28;20266;-58
2022/05/02 00:09:20;;;;;;;12.13;8.65;;;;;;;;;;5010160;28;20236;-59
2022/05/02 00:11:45;;;;;;;11.55;8.45;;;;;;;;;;5009854;28;20213;-58
2022/05/02 00:14:10;;;;;;;11.27;8.30;;;;;;;;;;5010384;28;20339;-59
2022/05/02 00:16:36;;;;;;;13.40;8.75;;;;;;;;;;5010657;28;20279;-59
2022/05/02 00:19:01;;;;;;;12.55;8.43;;;;;;;;;;5013579;28;20585;-58
2022/05/02 00:21:27;;;;;;;12.27;8.88;;;;;;;;;;5001219;28;20212;-58
2022/05/02 00:23:52;;;;;;;12.73;9.00;;;;;;;;;;5001014;28;20225;-58
2022/05/02 00:26:17;;;;;;;11.93;9.02;;;;;;;;;;4999862;28;20208;-59
2022/05/02 00:28:42;;;;;;;10.68;8.40;;;;;;;;;;5001371;28;20216;-58
2022/05/02 00:31:08;;;;;;;12.07;8.23;;;;;;;;;;4999875;28;20220;-58
2022/05/02 00:33:33;;;;;;;13.13;8.50;;;;;;;;;;4997767;28;20216;-58
2022/05/02 00:35:58;;;;;;;12.18;8.88;;;;;;;;;;4993527;28;20220;-59
2022/05/02 00:38:24;;;;;;;14.73;9.30;;;;;;;;;;4992350;28;20208;-58
2022/05/02 00:40:49;;;;;;;14.52;8.45;;;;;;;;;;4996466;28;20224;-58
2022/05/02 00:43:14;;;;;;;13.02;9.35;;;;;;;;;;5001659;28;20203;-59
2022/05/02 00:45:39;;;;;;;11.25;8.77;;;;;;;;;;5019826;28;20273;-58
2022/05/02 00:48:05;;;;;;;13.40;9.35;;;;;;;;;;5019444;28;20290;-58
2022/05/02 00:50:32;;;;;;;13.85;8.93;;;;;;;;;;5020288;28;20739;-58
2022/05/02 00:52:57;;;;;;;10.82;8.25;;;;;;;;;;5022287;28;20243;-58
2022/05/02 00:55:22;;;;;;;15.07;8.52;;;;;;;;;;5019353;28;20238;-59
2022/05/02 00:57:47;;;;;;;12.10;9.13;;;;;;;;;;5013161;28;20232;-58
2022/05/02 01:00:13;;;;;;;11.82;8.90;;;;;;;;;;4997622;28;20230;-59
2022/05/02 01:02:38;;;;;;;17.95;9.85;;;;;;;;;;5020797;28;20659;-59
2022/05/02 01:05:03;;;;;;;11.57;8.73;;;;;;;;;;5023317;28;20997;-59
2022/05/02 01:07:29;;;;;;;13.00;9.35;;;;;;;;;;5023614;28;20610;-59
2022/05/02 01:09:54;;;;;;;12.82;9.18;;;;;;;;;;5024141;28;20207;-59
2022/05/02 01:12:21;;;;;;;11.75;8.82;;;;;;;;;;5023532;28;20273;-59
2022/05/02 01:14:47;;;;;;;12.32;9.35;;;;;;;;;;5042822;28;20214;-58
2022/05/02 01:17:13;;;;;;;13.07;10.20;;;;;;;;;;5042779;28;20284;-59
2022/05/02 01:19:38;;;;;;;15.15;10.73;;;;;;;;;;5038549;28;20208;-59
2022/05/02 01:22:04;;;;;;;14.73;10.25;;;;;;;;;;5034747;28;20222;-58
2022/05/02 01:24:42;;;;;;;13.43;9.55;;;;;;;;;;5036667;28;20210;-59
2022/05/02 01:27:08;;;;;;;13.35;10.13;;;;;;;;;;5031577;28;20208;-58
2022/05/02 01:29:34;;;;;;;14.02;9.82;;;;;;;;;;5023271;28;20230;-58
2022/05/02 01:32:00;;;;;;;12.65;9.70;;;;;;;;;;5023892;28;20302;-58
2022/05/02 01:34:25;;;;;;;13.82;10.32;;;;;;;;;;5022626;28;20261;-58
2022/05/02 01:36:50;;;;;;;12.95;10.30;;;;;;;;;;5023739;28;20253;-59
2022/05/02 01:39:15;;;;;;;13.93;10.20;;;;;;;;;;5022869;28;20208;-58
2022/05/02 01:41:41;;;;;;;14.18;10.52;;;;;;;;;;5019186;28;20316;-59
2022/05/02 01:44:06;;;;;;;14.68;9.95;;;;;;;;;;5015722;28;20323;-59
2022/05/02 01:46:31;;;;;;;12.23;9.93;;;;;;;;;;5016460;28;20215;-58
2022/05/02 01:48:57;;;;;;;15.15;11.10;;;;;;;;;;5018694;28;20252;-59
2022/05/02 01:51:22;;;;;;;14.93;10.45;;;;;;;;;;5022730;28;20220;-59
2022/05/02 01:53:47;;;;;;;15.25;10.52;;;;;;;;;;5005594;28;20684;-58
2022/05/02 01:56:13;;;;;;;13.38;10.88;;;;;;;;;;5031935;28;20239;-58
2022/05/02 01:58:38;;;;;;;16.15;10.82;;;;;;;;;;5023606;28;20211;-58
2022/05/02 02:01:03;;;;;;;14.38;10.90;;;;;;;;;;5022505;28;20361;-59
2022/05/02 02:03:28;;;;;;;15.23;10.57;;;;;;;;;;5021603;28;20211;-58
2022/05/02 02:05:54;;;;;;;15.30;10.40;;;;;;;;;;5016048;28;20235;-58
2022/05/02 02:08:20;;;;;;;15.82;10.60;;;;;;;;;;5015029;28;20883;-58
2022/05/02 02:10:46;;;;;;;14.48;10.20;;;;;;;;;;5035011;28;20218;-58
2022/05/02 02:13:12;;;;;;;17.02;10.48;;;;;;;;;;5040582;28;20693;-58
2022/05/02 02:15:37;;;;;;;16.08;10.02;;;;;;;;;;5042715;28;20765;-58
2022/05/02 02:18:03;;;;;;;12.10;10.57;;;;;;;;;;5040639;28;20236;-58
2022/05/02 02:20:28;;;;;;;14.25;10.82;;;;;;;;;;5042724;28;20207;-58
2022/05/02 02:22:54;;;;;;;13.75;10.85;;;;;;;;;;5024365;28;20215;-58
2022/05/02 02:25:20;;;;;;;16.10;10.48;;;;;;;;;;5023841;28;20241;-58
2022/05/02 02:27:45;;;;;;;15.07;10.75;;;;;;;;;;5021835;28;20849;-58
2022/05/02 02:30:10;;;;;;;13.75;10.45;;;;;;;;;;5014838;28;20654;-58
2022/05/02 02:32:36;;;;;;;18.35;11.38;;;;;;;;;;5014996;28;20212;-59
2022/05/02 02:35:01;;;;;;;15.43;10.75;;;;;;;;;;5020226;28;20252;-58
2022/05/02 02:37:26;;;;;;;13.30;10.32;;;;;;;;;;5022314;28;20218;-59
2022/05/02 02:39:52;;;;;;;16.42;11.15;;;;;;;;;;5041572;28;20222;-58
2022/05/02 02:42:17;;;;;;;14.20;10.25;;;;;;;;;;5041660;28;20207;-58
2022/05/02 02:44:42;;;;;;;15.68;10.85;;;;;;;;;;5041698;28;20305;-59
2022/05/02 02:47:07;;;;;;;15.15;11.23;;;;;;;;;;5041001;28;20271;-58
2022/05/02 02:49:33;;;;;;;15.25;11.20;;;;;;;;;;5038353;28;20214;-59
2022/05/02 02:51:58;;;;;;;14.40;11.20;;;;;;;;;;5034078;28;20215;-58
2022/05/02 02:54:23;;;;;;;16.45;12.05;;;;;;;;;;5033596;28;20243;-58
2022/05/02 02:56:49;;;;;;;17.73;11.15;;;;;;;;;;5033189;28;20302;-58
2022/05/02 02:59:14;;;;;;;17.75;10.80;;;;;;;;;;5020512;28;20679;-58
2022/05/02 03:01:39;;;;;;;15.80;11.23;;;;;;;;;;5022671;28;20679;-58
2022/05/02 03:06:49;;;;;;;16.75;11.48;;;;;;;;;;5026051;28;20321;-58
2022/05/02 03:09:14;;;;;;;14.50;11.38;;;;;;;;;;5040993;28;20234;-58
2022/05/02 03:11:40;;;;;;;17.77;11.27;;;;;;;;;;5039979;28;20237;-60
2022/05/02 03:14:05;;;;;;;15.70;11.93;;;;;;;;;;5014803;28;20207;-59
2022/05/02 03:16:30;;;;;;;17.15;11.45;;;;;;;;;;5033765;28;20246;-60
2022/05/02 03:18:55;;;;;;;14.55;11.55;;;;;;;;;;5035169;28;20796;-59
2022/05/02 03:21:21;;;;;;;16.20;11.55;;;;;;;;;;5040425;28;20831;-59
2022/05/02 03:23:46;;;;;;;16.38;11.73;;;;;;;;;;5040875;28;20681;-59
2022/05/02 03:26:11;;;;;;;14.07;11.68;;;;;;;;;;5039113;28;20253;-59
2022/05/02 03:28:36;;;;;;;14.85;11.20;;;;;;;;;;5020920;28;20219;-59
2022/05/02 03:31:02;;;;;;;16.38;11.68;;;;;;;;;;5021328;28;20270;-59
2022/05/02 03:33:28;;;;;;;16.67;11.25;;;;;;;;;;5041053;28;20297;-59
2022/05/02 03:35:53;;;;;;;15.45;11.57;;;;;;;;;;5033638;28;20237;-59
2022/05/02 03:38:18;;;;;;;17.48;11.38;;;;;;;;;;5033137;28;20207;-59
2022/05/02 03:40:43;;;;;;;20.50;11.68;;;;;;;;;;5033901;28;20207;-59
2022/05/02 03:43:09;;;;;;;12.55;10.45;;;;;;;;;;5038053;28;20211;-60
2022/05/02 03:45:34;;;;;;;16.88;11.77;;;;;;;;;;5040444;28;20207;-59
2022/05/02 03:48:00;;;;;;;17.30;12.23;;;;;;;;;;5040829;28;20226;-59
2022/05/02 03:50:25;;;;;;;16.92;11.57;;;;;;;;;;5039564;28;20207;-60
2022/05/02 03:52:50;;;;;;;15.02;11.60;;;;;;;;;;5040863;28;20318;-60
2022/05/02 03:55:15;;;;;;;14.70;11.15;;;;;;;;;;5039295;28;20207;-60
2022/05/02 03:57:41;;;;;;;17.10;11.88;;;;;;;;;;5026180;28;20235;-60
2022/05/02 04:00:07;;;;;;;16.25;11.07;;;;;;;;;;5012584;28;20722;-60
2022/05/02 04:02:32;;;;;;;16.40;11.82;;;;;;;;;;5013135;28;20214;-60
2022/05/02 04:04:58;;;;;;;14.35;11.05;;;;;;;;;;5036845;28;20207;-60
2022/05/02 04:07:23;;;;;;;15.88;11.77;;;;;;;;;;5040000;28;20210;-60
2022/05/02 04:09:49;;;;;;;18.15;12.05;;;;;;;;;;5039805;28;20215;-59
2022/05/02 04:12:14;;;;;;;15.18;12.13;;;;;;;;;;5039876;28;20574;-60
2022/05/02 04:14:39;;;;;;;16.88;11.98;;;;;;;;;;5040605;28;20211;-59
2022/05/02 04:17:04;;;;;;;16.20;11.52;;;;;;;;;;5039026;28;20232;-58
2022/05/02 04:19:30;;;;;;;15.93;11.52;;;;;;;;;;5039232;28;20215;-59
2022/05/02 04:21:55;;;;;;;15.45;11.55;;;;;;;;;;5033287;28;20203;-59
2022/05/02 04:24:20;;;;;;;15.77;11.30;;;;;;;;;;5031893;28;20241;-60
2022/05/02 04:26:46;;;;;;;15.02;11.55;;;;;;;;;;5027439;28;20208;-59
2022/05/02 04:29:11;;;;;;;19.23;12.25;;;;;;;;;;5020409;28;20219;-59
2022/05/02 04:31:36;;;;;;;15.07;11.50;;;;;;;;;;5019790;28;20223;-59
2022/05/02 04:34:01;;;;;;;15.82;12.20;;;;;;;;;;5020350;28;20224;-59
2022/05/02 04:36:27;;;;;;;18.38;11.80;;;;;;;;;;5023883;28;20552;-59
2022/05/02 04:38:52;;;;;;;16.08;11.93;;;;;;;;;;5023777;28;20573;-59
2022/05/02 04:41:18;;;;;;;16.52;11.48;;;;;;;;;;5043570;28;20214;-59
2022/05/02 04:43:43;;;;;;;17.08;12.20;;;;;;;;;;5038003;28;20721;-59
2022/05/02 04:46:09;;;;;;;17.13;11.50;;;;;;;;;;5035364;28;20218;-59
2022/05/02 04:48:34;;;;;;;14.48;11.05;;;;;;;;;;5036940;28;20210;-59
2022/05/02 04:50:59;;;;;;;12.20;9.90;;;;;;;;;;5042450;28;20254;-59
2022/05/02 04:53:24;;;;;;;13.27;10.60;;;;;;;;;;5042786;28;20223;-58
2022/05/02 04:55:50;;;;;;;16.08;11.40;;;;;;;;;;5044107;28;20706;-59
2022/05/02 04:58:15;;;;;;;16.67;11.25;;;;;;;;;;5009790;28;20307;-59
2022/05/02 05:00:41;;;;;;;15.32;11.23;;;;;;;;;;5023473;28;20215;-58
2022/05/02 05:03:06;;;;;;;12.90;10.80;;;;;;;;;;5042862;28;20203;-59
2022/05/02 05:05:32;;;;;;;16.20;10.55;;;;;;;;;;5040121;28;20211;-59
2022/05/02 05:07:57;;;;;;;16.80;10.50;;;;;;;;;;5036741;28;20782;-59
2022/05/02 05:10:22;;;;;;;15.60;10.70;;;;;;;;;;5035567;28;20685;-59
2022/05/02 05:12:52;;;;;;;15.88;10.95;;;;;;;;;;5038934;28;20210;-59
2022/05/02 05:18:14;;;;;;;16.25;10.73;;;;;;;;;;5028001;28;20744;-59
2022/05/02 05:20:39;;;;;;;14.57;10.20;;;;;;;;;;5042864;28;20211;-59
2022/05/02 05:23:11;;;;;;;14.10;10.00;;;;;;;;;;5028259;28;20220;-59
2022/05/02 05:25:55;;;;;;;14.07;9.95;;;;;;;;;;5006438;28;20774;-62
2022/05/02 05:28:50;;;;;;;13.75;9.93;;;;;;;;;;5019334;28;20224;-61
2022/05/02 05:31:15;;;;;;;14.53;10.47;;;;;;;;;;5033764;28;20415;-61
2022/05/02 05:33:49;;;;;;;13.45;10.38;;;;;;;;;;5021517;28;20246;-61
2022/05/02 05:36:15;;;;;;;12.75;10.40;;;;;;;;;;5021754;28;20220;-60
2022/05/02 05:38:51;;;;;;;11.80;9.95;;;;;;;;;;5025931;28;20299;-60
2022/05/02 05:41:27;;;;;;;11.82;9.55;;;;;;;;;;5025001;28;20209;-60
2022/05/02 05:43:57;;;;;;;13.50;9.77;;;;;;;;;;5007735;28;20212;-59
2022/05/02 05:46:23;;;;;;;12.75;9.77;;;;;;;;;;5025984;28;20776;-60
2022/05/02 05:49:02;;;;;;;16.73;10.70;;;;;;;;;;5044199;28;20211;-61
2022/05/02 05:51:31;;;;;;;12.70;10.23;;;;;;;;;;5038809;28;20238;-60
2022/05/02 05:54:11;;;;;;;12.07;9.65;;;;;;;;;;5027329;28;20314;-60
2022/05/02 05:56:47;;;;;;;13.55;10.60;;;;;;;;;;5030780;28;20262;-60
2022/05/02 05:59:19;;;;;;;13.02;10.23;;;;;;;;;;5034582;28;20211;-62
2022/05/02 06:01:53;;;;;;;13.98;10.82;;;;;;;;;;5025865;28;20249;-60
2022/05/02 06:04:19;;;;;;;15.35;10.68;;;;;;;;;;5025531;28;20212;-60
2022/05/02 06:06:44;;;;;;;12.75;10.57;;;;;;;;;;5017182;28;20219;-60
2022/05/02 06:09:09;;;;;;;11.88;9.65;;;;;;;;;;5020517;28;20212;-60
2022/05/02 06:11:34;;;;;;;14.55;10.38;;;;;;;;;;5043270;28;20226;-60
2022/05/02 06:14:01;;;;;;;12.82;10.57;;;;;;;;;;5034533;28;20219;-60
2022/05/02 06:19:13;;;;;;;12.40;10.57;;;;;;;;;;5033785;28;20269;-60
2022/05/02 06:21:41;;;;;;;13.68;10.38;;;;;;;;;;5034251;28;20208;-60
2022/05/02 06:24:06;;;;;;;16.15;10.38;;;;;;;;;;5033055;28;20211;-60
2022/05/02 06:26:32;;;;;;;13.23;10.40;;;;;;;;;;5021305;28;20217;-61
2022/05/02 06:28:57;;;;;;;12.20;10.48;;;;;;;;;;5054390;28;20215;-61
2022/05/02 06:31:24;;;;;;;13.43;11.00;;;;;;;;;;5052688;28;20564;-61
2022/05/02 06:33:49;;;;;;;14.10;10.30;;;;;;;;;;5035917;28;20673;-60
2022/05/02 06:36:22;;;;;;;12.65;10.52;;;;;;;;;;5037404;28;20228;-61
2022/05/02 06:38:55;;;;;;;15.70;11.13;;;;;;;;;;5015610;28;20211;-61
2022/05/02 06:41:29;;;;;;;14.18;11.18;;;;;;;;;;5033605;28;20625;-61
2022/05/02 06:43:58;;;;;;;13.18;10.00;;;;;;;;;;5015576;28;20208;-61
2022/05/02 06:46:27;;;;;;;13.45;9.80;;;;;;;;;;5033463;28;20212;-61
2022/05/02 06:48:54;;;;;;;14.13;10.23;;;;;;;;;;5015963;28;20261;-61
2022/05/02 06:51:22;;;;;;;13.43;9.93;;;;;;;;;;5032590;28;20212;-60
2022/05/02 06:53:50;;;;;;;13.40;10.05;;;;;;;;;;5050325;28;20682;-60
2022/05/02 06:56:20;;;;;;;12.45;10.23;;;;;;;;;;5053194;28;20749;-60
2022/05/02 06:58:49;;;;;;;14.57;9.82;;;;;;;;;;5034533;28;20238;-60
2022/05/02 07:01:19;;;;;;;13.52;9.57;;;;;;;;;;5030077;28;20211;-60
2022/05/02 07:03:58;;;;;;;11.90;9.63;;;;;;;;;;5035332;28;20214;-60
2022/05/02 07:06:39;;;;;;;15.27;9.93;;;;;;;;;;5052092;28;20272;-60
2022/05/02 07:09:05;;;;;;;14.38;10.05;;;;;;;;;;5053033;28;20764;-60
2022/05/02 07:11:35;;;;;;;11.35;9.38;;;;;;;;;;5028938;28;20298;-60
2022/05/02 07:14:02;;;;;;;11.00;8.52;;;;;;;;;;5034774;28;20241;-60
2022/05/02 07:16:27;;;;;;;12.15;8.88;;;;;;;;;;5035452;28;20227;-60
2022/05/02 07:19:03;;;;;;;11.95;9.32;;;;;;;;;;5035150;28;20759;-60
2022/05/02 07:21:28;;;;;;;13.43;8.35;;;;;;;;;;5052412;28;20325;-61
2022/05/02 07:24:08;;;;;;;14.80;8.93;;;;;;;;;;5053293;28;20690;-60
2022/05/02 07:26:34;;;;;;;10.57;8.35;;;;;;;;;;5051924;28;20268;-60
2022/05/02 07:28:59;;;;;;;11.38;8.10;;;;;;;;;;5035298;28;20306;-60
2022/05/02 07:31:25;;;;;;;12.38;8.52;;;;;;;;;;5052517;28;20222;-60
2022/05/02 07:33:53;;;;;;;10.38;7.65;;;;;;;;;;5052224;28;20226;-60
2022/05/02 07:36:19;;;;;;;12.32;7.95;;;;;;;;;;5051888;28;20235;-60
2022/05/02 07:38:46;;;;;;;10.52;7.57;;;;;;;;;;5050122;28;20195;-61
2022/05/02 07:41:24;;;;;;;11.27;8.23;;;;;;;;;;5051635;28;20223;-60
2022/05/02 07:43:52;;;;;;;10.57;8.00;;;;;;;;;;5037165;28;20202;-60
2022/05/02 07:46:18;;;;;;;11.48;8.45;;;;;;;;;;5052571;28;20219;-60
2022/05/02 07:48:43;;;;;;;11.07;7.95;;;;;;;;;;5052306;28;20289;-60
2022/05/02 07:51:09;;;;;;;11.82;7.60;;;;;;;;;;5034067;28;20318;-60
2022/05/02 07:53:35;;;;;;;10.82;7.70;;;;;;;;;;5051830;28;20257;-60
2022/05/02 07:56:01;;;;;;;11.95;8.73;;;;;;;;;;5044937;28;20957;-60
2022/05/02 07:58:26;;;;;;;10.77;8.00;;;;;;;;;;5015234;28;20210;-60
2022/05/02 08:00:51;;;;;;;12.07;7.88;;;;;;;;;;5018988;28;20219;-60
2022/05/02 08:03:19;;;;;;;11.57;7.82;;;;;;;;;;5030935;28;20742;-60
2022/05/02 08:05:44;;;;;;;10.65;7.97;;;;;;;;;;5018874;28;20259;-60
2022/05/02 08:08:13;;;;;;;11.00;7.68;;;;;;;;;;5031356;28;20231;-60
2022/05/02 08:10:42;;;;;;;12.05;8.48;;;;;;;;;;5030977;28;20302;-60
2022/05/02 08:13:08;;;;;;;12.55;7.72;;;;;;;;;;5030737;28;20636;-60
2022/05/02 08:15:41;;;;;;;13.50;7.35;;;;;;;;;;5031742;28;20208;-59
2022/05/02 08:18:12;;;;;;;11.90;7.85;;;;;;;;;;5032045;28;20294;-60
2022/05/02 08:20:43;;;;;;;11.20;8.93;;;;;;;;;;5031004;28;20227;-60
2022/05/02 08:28:46;;;;;;;11.80;9.05;;;;;;;;;;4996237;28;20262;-60
2022/05/02 08:31:17;;;;;;;11.32;8.60;;;;;;;;;;5002651;28;20211;-59
2022/05/02 08:33:45;;;;;;;12.95;8.63;;;;;;;;;;5015969;28;20212;-59
2022/05/02 08:36:15;;;;;;;13.90;8.40;;;;;;;;;;5029591;28;20232;-59
2022/05/02 08:38:45;;;;;;;13.32;8.95;;;;;;;;;;5019119;28;20697;-60
2022/05/02 08:41:13;;;;;;;13.60;9.55;;;;;;;;;;5031291;28;20211;-60
2022/05/02 08:43:39;;;;;;;12.35;8.75;;;;;;;;;;5031126;28;20242;-60
2022/05/02 08:46:22;;;;;;;16.08;9.90;;;;;;;;;;5031739;28;20598;-60
2022/05/02 08:52:02;;;;;;;13.23;9.05;;;;;;;;;;5029927;28;20254;-60
2022/05/02 08:54:33;;;;;;;12.50;8.85;;;;;;;;;;5011832;28;20223;-60
2022/05/02 08:57:09;;;;;;;13.77;8.88;;;;;;;;;;5012137;28;20315;-60
2022/05/02 08:59:39;;;;;;;12.25;8.77;;;;;;;;;;5029818;28;20203;-59
2022/05/02 09:02:05;;;;;;;15.32;8.35;;;;;;;;;;5017904;28;20223;-59
2022/05/02 09:04:51;;;;;;;14.00;8.75;;;;;;;;;;5011854;28;20299;-60
2022/05/02 09:07:18;;;;;;;12.60;8.48;;;;;;;;;;5010782;28;20209;-59
2022/05/02 09:09:59;;;;;;;12.48;8.15;;;;;;;;;;5010580;28;20223;-60
2022/05/02 09:12:43;;;;;;;13.35;8.88;;;;;;;;;;5009381;28;20220;-59
2022/05/02 09:15:12;;;;;;;16.08;8.95;;;;;;;;;;5009878;28;20610;-60
2022/05/02 09:17:41;;;;;;;12.13;8.38;;;;;;;;;;5010288;28;20617;-60
2022/05/02 09:20:08;;;;;;;9.82;7.82;;;;;;;;;;5008945;28;20208;-60
2022/05/02 09:22:41;;;;;;;12.60;8.20;;;;;;;;;;5011665;28;20701;-60
2022/05/02 09:25:07;;;;;;;11.43;8.05;;;;;;;;;;5012283;28;20221;-60
2022/05/02 09:27:36;;;;;;;14.20;8.55;;;;;;;;;;5013034;28;20597;-59
2022/05/02 09:30:21;;;;;;;11.85;8.40;;;;;;;;;;5013404;28;20212;-60
2022/05/02 09:32:54;;;;;;;12.93;9.32;;;;;;;;;;5011702;28;20204;-59
2022/05/02 09:35:28;;;;;;;11.52;7.93;;;;;;;;;;5011710;28;20296;-60
2022/05/02 09:37:55;;;;;;;11.40;8.45;;;;;;;;;;5011812;28;20302;-60
2022/05/02 09:40:21;;;;;;;11.65;9.00;;;;;;;;;;5012542;28;21772;-60
2022/05/02 09:42:51;;;;;;;12.23;9.15;;;;;;;;;;5013536;28;20577;-60
2022/05/02 09:49:33;;;;;;;12.65;9.43;;;;;;;;;;5012364;28;20243;-59
2022/05/02 09:51:18;;;;;;;13.95;9.35;;;;;;;;;;5012876;28;20670;-60
2022/05/02 09:53:51;;;;;;;14.02;10.52;;;;;;;;;;5011715;28;20316;-60
2022/05/02 09:59:09;;;;;;;14.95;10.43;;;;;;;;;;5032598;28;20287;-60
2022/05/02 10:01:35;;;;;;;14.88;10.25;;;;;;;;;;5023841;28;20250;-59
2022/05/02 10:04:12;;;;;;;11.82;9.68;;;;;;;;;;5012999;28;20633;-60
2022/05/02 10:06:37;;;;;;;13.23;10.73;;;;;;;;;;5011931;28;20212;-59
2022/05/02 10:09:03;;;;;;;14.45;9.07;;;;;;;;;;5011914;28;20295;-60
2022/05/02 10:11:39;;;;;;;13.52;9.60;;;;;;;;;;5013189;28;20271;-60
2022/05/02 10:14:05;;;;;;;16.33;11.38;;;;;;;;;;5012469;28;20614;-60
2022/05/02 10:16:40;;;;;;;14.10;10.90;;;;;;;;;;5012100;28;20567;-60
2022/05/02 10:19:09;;;;;;;12.23;10.48;;;;;;;;;;5012145;28;20258;-60
2022/05/02 10:21:41;;;;;;;14.13;11.07;;;;;;;;;;5011566;28;20212;-60
2022/05/02 10:24:07;;;;;;;13.80;9.73;;;;;;;;;;5011393;28;20235;-59
2022/05/02 10:26:36;;;;;;;15.38;10.20;;;;;;;;;;5012834;28;20212;-60
2022/05/02 10:29:22;;;;;;;11.77;10.27;;;;;;;;;;5011437;28;20220;-60
2022/05/02 10:31:50;;;;;;;12.48;9.55;;;;;;;;;;5011432;28;20216;-59
2022/05/02 10:34:15;;;;;;;14.05;9.10;;;;;;;;;;5011102;28;20567;-59
2022/05/02 10:36:41;;;;;;;11.75;9.70;;;;;;;;;;5011985;28;20710;-60
2022/05/02 10:39:29;;;;;;;12.20;9.43;;;;;;;;;;5011695;28;20209;-59
2022/05/02 10:41:58;;;;;;;12.93;10.02;;;;;;;;;;5012459;28;20703;-59
2022/05/02 10:44:24;;;;;;;14.68;9.70;;;;;;;;;;5009833;28;20570;-59
2022/05/02 10:46:49;;;;;;;14.70;9.50;;;;;;;;;;5011194;28;20216;-60
2022/05/02 10:49:26;;;;;;;12.50;9.45;;;;;;;;;;5011629;28;20231;-60
2022/05/02 10:51:54;;;;;;;12.18;9.10;;;;;;;;;;5010348;28;20216;-60
2022/05/02 10:54:27;;;;;;;15.65;10.25;;;;;;;;;;5029803;28;20228;-60
2022/05/02 10:56:58;;;;;;;12.45;9.40;;;;;;;;;;5031588;28;20227;-59
2022/05/02 10:59:23;;;;;;;13.50;10.50;;;;;;;;;;4993635;28;20223;-60
2022/05/02 11:02:02;;;;;;;14.50;8.85;;;;;;;;;;5001977;28;20763;-59
2022/05/02 11:04:40;;;;;;;15.27;10.32;;;;;;;;;;5006261;28;20213;-59
2022/05/02 11:07:16;;;;;;;11.48;9.27;;;;;;;;;;5006204;28;20622;-59
2022/05/02 11:09:52;;;;;;;13.60;10.43;;;;;;;;;;5026569;28;20200;-60
2022/05/02 11:12:19;;;;;;;13.27;9.77;;;;;;;;;;4993235;28;20210;-59
2022/05/02 11:14:54;;;;;;;12.05;9.15;;;;;;;;;;5011663;28;20301;-60
2022/05/02 11:17:24;;;;;;;15.45;9.38;;;;;;;;;;5026497;28;20239;-60
2022/05/02 11:22:38;;;;;;;13.82;9.63;;;;;;;;;;5011362;28;20212;-60
2022/05/02 11:25:18;;;;;;;12.35;9.43;;;;;;;;;;5010936;28;20209;-59
2022/05/02 11:27:53;;;;;;;14.75;9.73;;;;;;;;;;5011522;28;20559;-60
2022/05/02 11:30:20;;;;;;;10.50;8.27;;;;;;;;;;5010816;28;20317;-60
2022/05/02 11:32:50;;;;;;;13.00;9.98;;;;;;;;;;5025925;28;20250;-59
2022/05/02 11:35:18;;;;;;;10.70;8.90;;;;;;;;;;5010979;28;20216;-59
2022/05/02 11:37:54;;;;;;;10.38;8.93;;;;;;;;;;5011269;28;20225;-60
2022/05/02 11:40:20;;;;;;;12.35;9.10;;;;;;;;;;5009658;28;20212;-59
2022/05/02 11:42:46;;;;;;;12.85;9.95;;;;;;;;;;5011212;28;20200;-60
2022/05/02 11:45:12;;;;;;;11.10;9.55;;;;;;;;;;5010572;28;20219;-59
2022/05/02 11:47:37;;;;;;;12.10;9.65;;;;;;;;;;5010556;28;20608;-59
2022/05/02 11:50:05;;;;;;;11.13;8.18;;;;;;;;;;5010590;28;20235;-59
2022/05/02 11:52:32;;;;;;;16.20;9.13;;;;;;;;;;5014813;28;20224;-60
2022/05/02 11:54:57;;;;;;;12.77;9.27;;;;;;;;;;5029773;28;20306;-60
2022/05/02 11:57:27;;;;;;;12.13;8.80;;;;;;;;;;5021308;28;20304;-59
2022/05/02 12:00:02;;;;;;;10.30;8.30;;;;;;;;;;5010904;28;20311;-59
2022/05/02 12:02:31;;;;;;;11.05;8.63;;;;;;;;;;5039923;28;20217;-59
2022/05/02 12:04:56;;;;;;;10.45;9.10;;;;;;;;;;5011039;28;20272;-59
2022/05/02 12:07:22;;;;;;;11.32;7.82;;;;;;;;;;5029438;28;20300;-59
2022/05/02 12:09:47;;;;;;;9.52;7.10;;;;;;;;;;5046925;28;20211;-59
2022/05/02 12:12:13;;;;;;;11.77;8.40;;;;;;;;;;5031774;28;20226;-59
2022/05/02 12:14:38;;;;;;;10.38;7.93;;;;;;;;;;5031738;28;20258;-58
2022/05/02 12:17:06;;;;;;;12.07;8.18;;;;;;;;;;5047272;28;20228;-59
2022/05/02 12:19:31;;;;;;;10.52;7.95;;;;;;;;;;5031928;28;20277;-59
2022/05/02 12:21:57;;;;;;;10.40;8.68;;;;;;;;;;5031599;28;20686;-59
2022/05/02 12:24:28;;;;;;;11.85;9.05;;;;;;;;;;5031820;28;20235;-59
2022/05/02 12:26:54;;;;;;;10.18;8.40;;;;;;;;;;5032152;28;20230;-59
2022/05/02 12:29:19;;;;;;;12.43;9.20;;;;;;;;;;5013346;28;20295;-60
2022/05/02 12:31:52;;;;;;;10.43;8.20;;;;;;;;;;5018542;28;20296;-59
2022/05/02 12:34:18;;;;;;;11.27;9.00;;;;;;;;;;5011832;28;20228;-59
2022/05/02 12:36:43;;;;;;;13.90;7.80;;;;;;;;;;5027061;28;20592;-59
2022/05/02 12:39:10;;;;;;;12.45;9.15;;;;;;;;;;5012013;28;20667;-60
2022/05/02 12:41:45;;;;;;;11.52;8.98;;;;;;;;;;5012263;28;20219;-59
2022/05/02 12:44:12;;;;;;;11.00;8.60;;;;;;;;;;5011231;28;20215;-59
2022/05/02 12:46:39;;;;;;;9.77;8.75;;;;;;;;;;5012652;28;20326;-59
2022/05/02 12:49:04;;;;;;;10.95;8.35;;;;;;;;;;5011600;28;20217;-59
2022/05/02 12:51:30;;;;;;;11.00;8.10;;;;;;;;;;5026962;28;20235;-59
2022/05/02 12:54:09;;;;;;;10.80;7.50;;;;;;;;;;5027516;28;20270;-59
2022/05/02 12:56:45;;;;;;;12.35;8.50;;;;;;;;;;4995840;28;20225;-59
2022/05/02 13:01:56;;;;;;;9.55;8.20;;;;;;;;;;5000949;28;20223;-59
2022/05/02 13:04:22;;;;;;;15.30;8.32;;;;;;;;;;5029525;28;20204;-59
2022/05/02 13:06:48;;;;;;;12.23;9.00;;;;;;;;;;5016070;28;20212;-59
2022/05/02 13:09:16;;;;;;;9.27;7.80;;;;;;;;;;5015698;28;20212;-59
2022/05/02 13:11:41;;;;;;;11.85;8.38;;;;;;;;;;5015183;28;20792;-60
2022/05/02 13:14:07;;;;;;;10.48;8.43;;;;;;;;;;5015643;28;20687;-59
2022/05/02 13:16:33;;;;;;;11.52;8.10;;;;;;;;;;5015743;28;20734;-59
2022/05/02 13:19:00;;;;;;;10.32;7.82;;;;;;;;;;5014799;28;20232;-59
2022/05/02 13:21:25;;;;;;;11.10;7.93;;;;;;;;;;5015466;28;20596;-59
2022/05/02 13:23:52;;;;;;;10.68;8.80;;;;;;;;;;5015947;28;20721;-59
2022/05/02 13:26:18;;;;;;;9.15;7.70;;;;;;;;;;5014506;28;20227;-59
2022/05/02 13:28:45;;;;;;;12.48;8.88;;;;;;;;;;5015696;28;20299;-60
2022/05/02 13:31:13;;;;;;;11.18;7.95;;;;;;;;;;5015321;28;20303;-60
2022/05/02 13:33:39;;;;;;;10.13;7.70;;;;;;;;;;5030005;28;20201;-59
2022/05/02 13:36:05;;;;;;;13.85;7.70;;;;;;;;;;5028956;28;20244;-60
2022/05/02 13:38:35;;;;;;;10.80;7.45;;;;;;;;;;5030181;28;20839;-59
2022/05/02 13:41:09;;;;;;;9.50;7.68;;;;;;;;;;5013730;28;20255;-60
2022/05/02 13:43:37;;;;;;;9.00;7.72;;;;;;;;;;5034652;28;20216;-60
2022/05/02 13:46:04;;;;;;;11.32;8.90;;;;;;;;;;4997208;28;20212;-60
2022/05/02 13:48:31;;;;;;;11.85;9.38;;;;;;;;;;4997807;28;20232;-59
2022/05/02 13:51:00;;;;;;;10.95;8.30;;;;;;;;;;5015309;28;20204;-59
2022/05/02 13:53:38;;;;;;;9.85;7.85;;;;;;;;;;5025112;28;20310;-60
2022/05/02 13:56:07;;;;;;;11.23;8.18;;;;;;;;;;5038551;28;20703;-60
2022/05/02 13:58:35;;;;;;;10.43;8.68;;;;;;;;;;5035877;28;20277;-59
2022/05/02 14:03:53;;;;;;;11.50;8.18;;;;;;;;;;5018273;28;20216;-59
2022/05/02 14:06:24;;;;;;;10.07;8.23;;;;;;;;;;5020664;28;20609;-59
2022/05/02 14:08:49;;;;;;;10.52;8.18;;;;;;;;;;5035113;28;20260;-60
2022/05/02 14:11:16;;;;;;;12.90;8.48;;;;;;;;;;5036668;28;20238;-60
2022/05/02 14:13:42;;;;;;;10.48;8.80;;;;;;;;;;5036755;28;20211;-59
2022/05/02 14:16:08;;;;;;;12.48;8.27;;;;;;;;;;5053345;28;20783;-60
2022/05/02 14:18:46;;;;;;;9.73;7.90;;;;;;;;;;5054273;28;20212;-59
2022/05/02 14:21:12;;;;;;;12.38;7.20;;;;;;;;;;5035515;28;20301;-59
2022/05/02 14:23:47;;;;;;;14.23;7.97;;;;;;;;;;5054562;28;20703;-59
2022/05/02 14:26:13;;;;;;;12.50;7.57;;;;;;;;;;5053708;28;20211;-59
2022/05/02 14:28:43;;;;;;;13.68;8.13;;;;;;;;;;5046582;28;20203;-59
2022/05/02 14:31:09;;;;;;;11.27;8.15;;;;;;;;;;5033771;28;20211;-59
2022/05/02 14:33:38;;;;;;;10.93;6.97;;;;;;;;;;5034053;28;20233;-59
2022/05/02 14:36:03;;;;;;;10.35;7.45;;;;;;;;;;5033016;28;20314;-60
2022/05/02 14:38:28;;;;;;;12.10;8.00;;;;;;;;;;5034283;28;20299;-59
2022/05/02 14:40:55;;;;;;;9.95;7.47;;;;;;;;;;5034113;28;20293;-59
2022/05/02 14:43:21;;;;;;;10.85;7.90;;;;;;;;;;5032715;28;20251;-59
2022/05/02 14:45:46;;;;;;;11.60;7.18;;;;;;;;;;5034109;28;20611;-59
2022/05/02 14:48:12;;;;;;;9.30;6.50;;;;;;;;;;5032981;28;20675;-59
2022/05/02 14:50:40;;;;;;;10.93;7.85;;;;;;;;;;5033315;28;20208;-59
2022/05/02 14:53:07;;;;;;;11.95;7.10;;;;;;;;;;5031520;28;20234;-59
2022/05/02 14:55:33;;;;;;;10.85;7.70;;;;;;;;;;5032979;28;20235;-60
2022/05/02 14:57:59;;;;;;;10.20;7.57;;;;;;;;;;5029703;28;20224;-60
2022/05/02 15:00:24;;;;;;;11.40;8.30;;;;;;;;;;5032206;28;20744;-60
2022/05/02 15:02:50;;;;;;;12.07;7.90;;;;;;;;;;5001582;28;20211;-60